Time;durP1;ratioP1;P1;durP2;ratioP2;P2;SDS_P1;SDS_P2;PMS_P1;PMS_P2;Temp;Humidity;BMP_temperature;BMP_pressure;BME280_temperature;BME280_humidity;BME280_pressure;Samples;Min_cycle;Max_cycle;Signal;HPM_P1;HPM_P2
2023/11/18 00:00:23;;;;;;;2.57;2.37;;;;;;;;;;5115242;28;20227;-88
2023/11/18 00:02:50;;;;;;;2.20;2.10;;;;;;;;;;5116013;28;20656;-88
2023/11/18 00:05:17;;;;;;;2.70;2.50;;;;;;;;;;5096327;28;20228;-88
2023/11/18 00:07:45;;;;;;;2.80;2.60;;;;;;;;;;5108991;28;20207;-88
2023/11/18 00:10:12;;;;;;;2.33;2.23;;;;;;;;;;5109144;28;20655;-88
2023/11/18 00:12:41;;;;;;;2.83;2.50;;;;;;;;;;5095663;28;20215;-88
2023/11/18 00:15:08;;;;;;;2.70;2.50;;;;;;;;;;5102341;28;20206;-88
2023/11/18 00:17:35;;;;;;;2.30;2.20;;;;;;;;;;5115248;28;20674;-88
2023/11/18 00:20:08;;;;;;;2.50;2.30;;;;;;;;;;5115757;28;20211;-87
2023/11/18 00:22:35;;;;;;;2.90;2.53;;;;;;;;;;5101467;28;20201;-87
2023/11/18 00:25:05;;;;;;;2.80;2.60;;;;;;;;;;5115466;28;20238;-87
2023/11/18 00:27:32;;;;;;;2.83;2.53;;;;;;;;;;5101576;28;20204;-87
2023/11/18 00:29:59;;;;;;;1.80;1.70;;;;;;;;;;5114419;28;20215;-86
2023/11/18 00:32:26;;;;;;;1.70;1.60;;;;;;;;;;5100641;28;20712;-86
2023/11/18 00:34:52;;;;;;;2.00;1.90;;;;;;;;;;5114954;28;20207;-87
2023/11/18 00:37:19;;;;;;;2.10;2.00;;;;;;;;;;5114935;28;20204;-87
2023/11/18 00:39:46;;;;;;;1.90;1.80;;;;;;;;;;5115155;28;20218;-87
2023/11/18 00:42:15;;;;;;;1.80;1.70;;;;;;;;;;5115248;28;20230;-87
2023/11/18 00:44:42;;;;;;;2.73;1.83;;;;;;;;;;5114671;28;20207;-88
2023/11/18 00:47:09;;;;;;;1.77;1.67;;;;;;;;;;5101529;28;20218;-87
2023/11/18 00:49:37;;;;;;;1.67;1.57;;;;;;;;;;5114645;28;20234;-87
2023/11/18 00:52:04;;;;;;;1.63;1.53;;;;;;;;;;5115258;28;20207;-87
2023/11/18 00:54:31;;;;;;;1.60;1.50;;;;;;;;;;5103532;28;20212;-87
2023/11/18 00:56:58;;;;;;;1.47;1.30;;;;;;;;;;5113112;28;20200;-88
2023/11/18 00:59:26;;;;;;;1.67;1.57;;;;;;;;;;5114695;28;20215;-88
2023/11/18 01:01:53;;;;;;;1.27;1.17;;;;;;;;;;5114734;28;20294;-87
2023/11/18 01:04:21;;;;;;;1.20;1.13;;;;;;;;;;5115064;28;20600;-88
2023/11/18 01:06:48;;;;;;;2.20;1.50;;;;;;;;;;5114802;28;20309;-88
2023/11/18 01:09:16;;;;;;;1.27;1.17;;;;;;;;;;5102934;28;20242;-88
2023/11/18 01:11:43;;;;;;;1.10;1.10;;;;;;;;;;5113329;28;20212;-88
2023/11/18 01:14:09;;;;;;;1.40;1.30;;;;;;;;;;5102148;28;20204;-88
2023/11/18 01:16:38;;;;;;;1.70;1.60;;;;;;;;;;5108423;28;20204;-88
2023/11/18 01:19:08;;;;;;;1.00;1.00;;;;;;;;;;5094272;28;20204;-88
2023/11/18 01:21:36;;;;;;;0.93;0.93;;;;;;;;;;5100595;28;20200;-88
2023/11/18 01:24:03;;;;;;;0.90;0.90;;;;;;;;;;5100484;28;20200;-89
2023/11/18 01:26:30;;;;;;;1.10;1.10;;;;;;;;;;5114511;28;20249;-88
2023/11/18 01:28:57;;;;;;;0.70;0.70;;;;;;;;;;5113869;28;20206;-88
2023/11/18 01:31:23;;;;;;;1.07;1.07;;;;;;;;;;5107316;28;20209;-89
2023/11/18 01:33:55;;;;;;;1.37;1.20;;;;;;;;;;5094515;28;20286;-89
2023/11/18 01:36:21;;;;;;;1.13;1.03;;;;;;;;;;5105745;28;20201;-88
2023/11/18 01:38:48;;;;;;;1.30;1.10;;;;;;;;;;5108962;28;20203;-88
2023/11/18 01:41:15;;;;;;;0.90;0.90;;;;;;;;;;5114068;28;20589;-88
2023/11/18 01:43:42;;;;;;;0.83;0.80;;;;;;;;;;5113404;28;20207;-88
2023/11/18 01:46:12;;;;;;;0.90;0.90;;;;;;;;;;5113515;28;20231;-88
2023/11/18 01:48:41;;;;;;;1.03;1.03;;;;;;;;;;5110927;28;20204;-88
2023/11/18 01:51:11;;;;;;;0.80;0.80;;;;;;;;;;5104379;28;20199;-88
2023/11/18 01:53:39;;;;;;;1.00;1.00;;;;;;;;;;5114312;28;20199;-88
2023/11/18 01:56:08;;;;;;;1.03;1.00;;;;;;;;;;5113988;28;20203;-88
2023/11/18 01:58:40;;;;;;;0.70;0.70;;;;;;;;;;5100352;28;20200;-88
2023/11/18 02:01:09;;;;;;;0.83;0.80;;;;;;;;;;5114177;28;20250;-88
2023/11/18 02:03:37;;;;;;;0.90;0.90;;;;;;;;;;5108610;28;20382;-88
2023/11/18 02:06:05;;;;;;;1.33;1.20;;;;;;;;;;5105654;28;20223;-87
2023/11/18 02:08:35;;;;;;;0.87;0.87;;;;;;;;;;5113173;28;20215;-86
2023/11/18 02:11:11;;;;;;;0.80;0.80;;;;;;;;;;5113288;28;20214;-87
2023/11/18 02:13:40;;;;;;;1.10;1.10;;;;;;;;;;5100790;28;20214;-87
2023/11/18 02:16:08;;;;;;;0.80;0.80;;;;;;;;;;5099514;28;20212;-87
2023/11/18 02:18:36;;;;;;;0.90;0.90;;;;;;;;;;5113619;28;20208;-87
2023/11/18 02:21:08;;;;;;;0.93;0.93;;;;;;;;;;5113153;28;20218;-88
2023/11/18 02:23:37;;;;;;;1.07;1.00;;;;;;;;;;5113701;28;20639;-88
2023/11/18 02:26:05;;;;;;;1.03;0.93;;;;;;;;;;5113057;28;20229;-88
2023/11/18 02:28:33;;;;;;;0.97;0.93;;;;;;;;;;5112755;28;20302;-88
2023/11/18 02:31:05;;;;;;;1.40;1.30;;;;;;;;;;5113521;28;20272;-88
2023/11/18 02:33:39;;;;;;;0.87;0.87;;;;;;;;;;5112931;28;20210;-89
2023/11/18 02:36:10;;;;;;;1.53;0.93;;;;;;;;;;5113267;28;20234;-88
2023/11/18 02:38:45;;;;;;;0.90;0.90;;;;;;;;;;5113644;28;20221;-88
2023/11/18 02:41:14;;;;;;;0.90;0.90;;;;;;;;;;5099337;28;20665;-88
2023/11/18 02:43:41;;;;;;;0.90;0.90;;;;;;;;;;5098389;28;20196;-87
2023/11/18 02:46:08;;;;;;;0.83;0.83;;;;;;;;;;5100043;28;20235;-88
2023/11/18 02:48:36;;;;;;;1.00;1.00;;;;;;;;;;5112867;28;20211;-87
2023/11/18 02:51:04;;;;;;;0.70;0.70;;;;;;;;;;5105522;28;20288;-88
2023/11/18 02:53:33;;;;;;;0.77;0.77;;;;;;;;;;5106564;28;20214;-88
2023/11/18 02:56:02;;;;;;;0.87;0.87;;;;;;;;;;5113077;28;20196;-88
2023/11/18 02:58:31;;;;;;;0.97;0.97;;;;;;;;;;5096309;28;20291;-87
2023/11/18 03:00:59;;;;;;;0.80;0.80;;;;;;;;;;5102969;28;20291;-87
2023/11/18 03:03:27;;;;;;;1.00;1.00;;;;;;;;;;5112769;28;20219;-87
2023/11/18 03:05:54;;;;;;;1.30;1.20;;;;;;;;;;5112137;28;20231;-88
2023/11/18 03:08:21;;;;;;;1.13;1.10;;;;;;;;;;5108375;28;20201;-86
2023/11/18 03:10:52;;;;;;;1.23;1.13;;;;;;;;;;5103250;28;20204;-86
2023/11/18 03:13:19;;;;;;;1.77;1.20;;;;;;;;;;5112438;28;20209;-87
2023/11/18 03:15:48;;;;;;;1.40;1.30;;;;;;;;;;5100055;28;20211;-87
2023/11/18 03:18:15;;;;;;;0.90;0.90;;;;;;;;;;5106087;28;20575;-87
2023/11/18 03:20:42;;;;;;;0.90;0.90;;;;;;;;;;5092041;28;20204;-86
2023/11/18 03:23:09;;;;;;;0.70;0.70;;;;;;;;;;5111245;28;20701;-86
2023/11/18 03:25:38;;;;;;;0.90;0.90;;;;;;;;;;5111899;28;20257;-86
2023/11/18 03:28:06;;;;;;;0.70;0.70;;;;;;;;;;5112232;28;20242;-86
2023/11/18 03:30:35;;;;;;;1.00;0.90;;;;;;;;;;5112088;28;20301;-85
2023/11/18 03:33:03;;;;;;;0.90;0.90;;;;;;;;;;5105331;28;20246;-86
2023/11/18 03:35:31;;;;;;;0.80;0.80;;;;;;;;;;5106149;28;20207;-86
2023/11/18 03:37:57;;;;;;;0.70;0.70;;;;;;;;;;5111678;28;20593;-86
2023/11/18 03:40:25;;;;;;;1.30;1.20;;;;;;;;;;5111786;28;20218;-86
2023/11/18 03:42:53;;;;;;;0.80;0.80;;;;;;;;;;5103771;28;20232;-86
2023/11/18 03:45:20;;;;;;;0.93;0.93;;;;;;;;;;5106952;28;20215;-86
2023/11/18 03:47:49;;;;;;;0.73;0.73;;;;;;;;;;5111752;28;20203;-86
2023/11/18 03:50:18;;;;;;;0.73;0.73;;;;;;;;;;5097661;28;20208;-86
2023/11/18 03:52:45;;;;;;;0.87;0.87;;;;;;;;;;5111895;28;20204;-86
2023/11/18 03:55:12;;;;;;;1.23;0.90;;;;;;;;;;5098199;28;20200;-87
2023/11/18 03:57:39;;;;;;;0.70;0.70;;;;;;;;;;5111819;28;20211;-86
2023/11/18 04:00:07;;;;;;;0.50;0.50;;;;;;;;;;5098204;28;20589;-85
2023/11/18 04:02:35;;;;;;;0.70;0.70;;;;;;;;;;5111405;28;20268;-85
2023/11/18 04:05:03;;;;;;;0.60;0.60;;;;;;;;;;5112476;28;20214;-86
2023/11/18 04:07:31;;;;;;;0.70;0.70;;;;;;;;;;5115591;28;20259;-87
2023/11/18 04:10:00;;;;;;;0.50;0.50;;;;;;;;;;5115471;28;20210;-87
2023/11/18 04:12:26;;;;;;;0.80;0.80;;;;;;;;;;5115674;28;20669;-87
2023/11/18 04:14:53;;;;;;;0.57;0.57;;;;;;;;;;5115415;28;20697;-86
2023/11/18 04:17:20;;;;;;;0.90;0.90;;;;;;;;;;5115686;28;20207;-88
2023/11/18 04:19:47;;;;;;;1.17;0.83;;;;;;;;;;5110147;28;20569;-87
2023/11/18 04:22:13;;;;;;;0.90;0.90;;;;;;;;;;5095124;28;20216;-87
2023/11/18 04:24:42;;;;;;;0.60;0.60;;;;;;;;;;5100092;28;20204;-88
2023/11/18 04:27:08;;;;;;;0.67;0.67;;;;;;;;;;5115460;28;20229;-86
2023/11/18 04:29:40;;;;;;;1.13;0.73;;;;;;;;;;5114544;28;20208;-86
2023/11/18 04:32:08;;;;;;;0.77;0.77;;;;;;;;;;5114916;28;20661;-87
2023/11/18 04:34:39;;;;;;;0.70;0.70;;;;;;;;;;5102110;28;20616;-88
2023/11/18 04:37:07;;;;;;;0.70;0.70;;;;;;;;;;5101483;28;20212;-87
2023/11/18 04:39:34;;;;;;;0.60;0.60;;;;;;;;;;5106468;28;20211;-87
2023/11/18 04:42:02;;;;;;;0.50;0.50;;;;;;;;;;5094879;28;20224;-87
2023/11/18 04:44:31;;;;;;;0.70;0.70;;;;;;;;;;5094490;28;20754;-87
2023/11/18 04:46:58;;;;;;;0.80;0.80;;;;;;;;;;5102264;28;20233;-87
2023/11/18 04:49:24;;;;;;;0.73;0.73;;;;;;;;;;5099551;28;20215;-88
2023/11/18 04:51:51;;;;;;;0.70;0.70;;;;;;;;;;5114610;28;20211;-86
2023/11/18 04:54:19;;;;;;;0.80;0.80;;;;;;;;;;5114250;28;20203;-88
2023/11/18 04:56:46;;;;;;;1.40;1.30;;;;;;;;;;5107011;28;20222;-89
2023/11/18 04:59:14;;;;;;;1.30;1.20;;;;;;;;;;5103485;28;20681;-88
2023/11/18 05:01:41;;;;;;;1.03;1.00;;;;;;;;;;5099992;28;20211;-86
2023/11/18 05:04:08;;;;;;;2.30;2.10;;;;;;;;;;5111369;28;20203;-80
2023/11/18 05:06:34;;;;;;;0.70;0.70;;;;;;;;;;5112347;28;20227;-80
2023/11/18 05:09:01;;;;;;;0.70;0.70;;;;;;;;;;5101283;28;20200;-80
2023/11/18 05:11:28;;;;;;;0.50;0.50;;;;;;;;;;5111324;28;20202;-79
2023/11/18 05:13:56;;;;;;;0.60;0.60;;;;;;;;;;5112823;28;20594;-80
2023/11/18 05:16:24;;;;;;;0.63;0.63;;;;;;;;;;5107521;28;20234;-81
2023/11/18 05:18:51;;;;;;;0.70;0.70;;;;;;;;;;5112614;28;20693;-80
2023/11/18 05:21:18;;;;;;;3.43;2.73;;;;;;;;;;5092603;28;20196;-79
2023/11/18 05:23:45;;;;;;;2.30;2.10;;;;;;;;;;5092870;28;20231;-82
2023/11/18 05:26:12;;;;;;;1.30;1.13;;;;;;;;;;5092270;28;20216;-81
2023/11/18 05:28:39;;;;;;;0.60;0.60;;;;;;;;;;5092214;28;20219;-81
2023/11/18 05:31:06;;;;;;;0.80;0.80;;;;;;;;;;5092672;28;20228;-81
2023/11/18 05:33:35;;;;;;;0.77;0.77;;;;;;;;;;5105770;28;20206;-79
2023/11/18 05:36:04;;;;;;;0.80;0.80;;;;;;;;;;5105460;28;20227;-88
2023/11/18 05:38:34;;;;;;;0.60;0.60;;;;;;;;;;5108561;28;20264;-88
2023/11/18 05:41:03;;;;;;;0.50;0.50;;;;;;;;;;5105042;28;20253;-87
2023/11/18 05:43:36;;;;;;;0.40;0.40;;;;;;;;;;5112118;28;20208;-84
2023/11/18 05:46:20;;;;;;;0.60;0.60;;;;;;;;;;5081035;28;20287;-87
2023/11/18 05:48:49;;;;;;;0.63;0.63;;;;;;;;;;5094503;28;20196;-87
2023/11/18 05:51:20;;;;;;;1.90;0.93;;;;;;;;;;5113691;28;20211;-87
2023/11/18 05:53:47;;;;;;;0.80;0.80;;;;;;;;;;5092973;28;20216;-87
2023/11/18 05:56:16;;;;;;;1.10;1.07;;;;;;;;;;5106742;28;20215;-87
2023/11/18 05:58:43;;;;;;;0.80;0.80;;;;;;;;;;5095993;28;20260;-87
2023/11/18 06:01:11;;;;;;;1.30;1.20;;;;;;;;;;5113104;28;20235;-87
2023/11/18 06:03:42;;;;;;;2.00;1.10;;;;;;;;;;5081077;28;20203;-87
2023/11/18 06:06:12;;;;;;;2.00;1.90;;;;;;;;;;5100003;28;20208;-88
2023/11/18 06:08:41;;;;;;;1.93;1.33;;;;;;;;;;5091979;28;20196;-86
2023/11/18 06:11:13;;;;;;;1.70;1.60;;;;;;;;;;5106014;28;20230;-87
2023/11/18 06:13:46;;;;;;;1.90;1.60;;;;;;;;;;5093036;28;20650;-87
2023/11/18 06:16:15;;;;;;;2.43;2.23;;;;;;;;;;5108715;28;20207;-87
2023/11/18 06:18:44;;;;;;;3.13;1.77;;;;;;;;;;5112748;28;20731;-88
2023/11/18 06:21:16;;;;;;;2.00;1.77;;;;;;;;;;5094676;28;20285;-86
2023/11/18 06:23:43;;;;;;;2.93;2.43;;;;;;;;;;5102977;28;20204;-87
2023/11/18 06:26:11;;;;;;;1.93;1.80;;;;;;;;;;5110382;28;20202;-86
2023/11/18 06:28:41;;;;;;;1.63;1.30;;;;;;;;;;5111810;28;20693;-87
2023/11/18 06:31:09;;;;;;;1.60;1.50;;;;;;;;;;5094297;28;20195;-87
2023/11/18 06:33:42;;;;;;;2.23;1.50;;;;;;;;;;5112824;28;20277;-86
2023/11/18 06:36:10;;;;;;;1.10;1.07;;;;;;;;;;5113036;28;20210;-87
2023/11/18 06:38:40;;;;;;;1.30;1.00;;;;;;;;;;5112318;28;20214;-88
2023/11/18 06:41:08;;;;;;;1.30;0.97;;;;;;;;;;5081462;28;20206;-87
2023/11/18 06:43:51;;;;;;;0.70;0.70;;;;;;;;;;5099372;28;20701;-87
2023/11/18 06:46:20;;;;;;;1.13;1.03;;;;;;;;;;5102617;28;20582;-87
2023/11/18 06:48:49;;;;;;;0.87;0.80;;;;;;;;;;5091157;28;20213;-87
2023/11/18 06:51:16;;;;;;;0.80;0.80;;;;;;;;;;5074549;28;20238;-87
2023/11/18 06:53:45;;;;;;;1.27;1.00;;;;;;;;;;5109149;28;20696;-87
2023/11/18 06:56:12;;;;;;;0.90;0.90;;;;;;;;;;5102400;28;20247;-86
2023/11/18 06:58:41;;;;;;;0.80;0.80;;;;;;;;;;5091393;28;20211;-86
2023/11/18 07:01:09;;;;;;;1.13;1.00;;;;;;;;;;5095110;28;20213;-87
2023/11/18 07:03:39;;;;;;;1.80;1.13;;;;;;;;;;5098952;28;20294;-87
2023/11/18 07:06:06;;;;;;;0.90;0.90;;;;;;;;;;5082562;28;20204;-85
2023/11/18 07:08:35;;;;;;;0.90;0.90;;;;;;;;;;5098584;28;20704;-86
2023/11/18 07:11:05;;;;;;;0.83;0.83;;;;;;;;;;5094474;28;20202;-88
2023/11/18 07:13:34;;;;;;;1.00;1.00;;;;;;;;;;5104630;28;20725;-88
2023/11/18 07:16:03;;;;;;;1.40;1.30;;;;;;;;;;5105470;28;20621;-88
2023/11/18 07:18:31;;;;;;;1.43;1.23;;;;;;;;;;5082730;28;20203;-87
2023/11/18 07:21:00;;;;;;;4.77;1.00;;;;;;;;;;5109626;28;20242;-87
2023/11/18 07:23:27;;;;;;;0.80;0.80;;;;;;;;;;5101198;28;20573;-86
2023/11/18 07:25:54;;;;;;;0.70;0.70;;;;;;;;;;5095740;28;20264;-87
2023/11/18 07:28:23;;;;;;;0.83;0.83;;;;;;;;;;5080381;28;20304;-86
2023/11/18 07:30:50;;;;;;;0.70;0.70;;;;;;;;;;5094996;28;20207;-86
2023/11/18 07:33:18;;;;;;;0.80;0.80;;;;;;;;;;5111944;28;20663;-86
2023/11/18 07:35:49;;;;;;;0.90;0.90;;;;;;;;;;5093804;28;20204;-87
2023/11/18 07:38:16;;;;;;;0.90;0.90;;;;;;;;;;5091658;28;20692;-85
2023/11/18 07:40:45;;;;;;;1.77;1.63;;;;;;;;;;5095709;28;20260;-86
2023/11/18 07:43:12;;;;;;;0.90;0.80;;;;;;;;;;5098048;28;20709;-87
2023/11/18 07:45:42;;;;;;;1.43;1.00;;;;;;;;;;5096301;28;20200;-86
2023/11/18 07:48:09;;;;;;;0.80;0.80;;;;;;;;;;5090515;28;20717;-85
2023/11/18 07:50:40;;;;;;;1.43;1.33;;;;;;;;;;5112146;28;20199;-85
2023/11/18 07:53:07;;;;;;;1.17;1.00;;;;;;;;;;5116766;28;20616;-87
2023/11/18 07:55:34;;;;;;;0.97;0.70;;;;;;;;;;5113997;28;20204;-86
2023/11/18 07:58:01;;;;;;;1.57;1.00;;;;;;;;;;5104547;28;20242;-87
2023/11/18 08:00:30;;;;;;;0.83;0.83;;;;;;;;;;5115762;28;20230;-86
2023/11/18 08:03:00;;;;;;;1.53;1.37;;;;;;;;;;5115719;28;20197;-87
2023/11/18 08:05:28;;;;;;;1.00;0.97;;;;;;;;;;5107771;28;20212;-86
2023/11/18 08:07:54;;;;;;;0.70;0.70;;;;;;;;;;5108773;28;20284;-86
2023/11/18 08:10:21;;;;;;;0.83;0.83;;;;;;;;;;5102981;28;20212;-87
2023/11/18 08:12:49;;;;;;;0.70;0.70;;;;;;;;;;5101857;28;20318;-87
2023/11/18 08:15:15;;;;;;;0.90;0.90;;;;;;;;;;5106683;28;20679;-86
2023/11/18 08:17:42;;;;;;;1.30;1.27;;;;;;;;;;5092370;28;20593;-86
2023/11/18 08:20:14;;;;;;;0.90;0.90;;;;;;;;;;5114797;28;20208;-80
2023/11/18 08:22:43;;;;;;;1.10;0.97;;;;;;;;;;5114319;28;20718;-86
2023/11/18 08:25:12;;;;;;;0.60;0.60;;;;;;;;;;5114734;28;20200;-87
2023/11/18 08:27:40;;;;;;;0.60;0.60;;;;;;;;;;5111664;28;20216;-87
2023/11/18 08:30:11;;;;;;;1.10;1.10;;;;;;;;;;5109510;28;20209;-86
2023/11/18 08:32:43;;;;;;;1.17;1.17;;;;;;;;;;5107720;28;20213;-84
2023/11/18 08:35:15;;;;;;;0.80;0.80;;;;;;;;;;5090446;28;20204;-87
2023/11/18 08:37:43;;;;;;;1.73;0.90;;;;;;;;;;5109647;28;20218;-86
2023/11/18 08:40:14;;;;;;;1.43;0.70;;;;;;;;;;5096991;28;20668;-86
2023/11/18 08:42:47;;;;;;;1.00;0.90;;;;;;;;;;5099098;28;20236;-85
2023/11/18 08:45:16;;;;;;;0.93;0.93;;;;;;;;;;5094156;28;20200;-85
2023/11/18 08:47:44;;;;;;;1.00;1.00;;;;;;;;;;5112173;28;20231;-85
2023/11/18 08:50:14;;;;;;;0.93;0.93;;;;;;;;;;5107750;28;20577;-86
2023/11/18 08:52:43;;;;;;;1.10;1.10;;;;;;;;;;5102046;28;20204;-85
2023/11/18 08:55:17;;;;;;;3.03;0.90;;;;;;;;;;5112967;28;20199;-85
2023/11/18 08:57:52;;;;;;;1.10;1.10;;;;;;;;;;5114605;28;20231;-85
2023/11/18 09:03:01;;;;;;;0.90;0.90;;;;;;;;;;5078225;28;20200;-85
2023/11/18 09:05:31;;;;;;;1.10;1.00;;;;;;;;;;5107229;28;20224;-85
2023/11/18 09:08:00;;;;;;;0.70;0.70;;;;;;;;;;5094341;28;20230;-87
2023/11/18 09:10:28;;;;;;;1.40;1.20;;;;;;;;;;5092105;28;20669;-85
2023/11/18 09:12:54;;;;;;;2.83;0.90;;;;;;;;;;5113241;28;20212;-85
2023/11/18 09:15:22;;;;;;;1.10;1.00;;;;;;;;;;5113647;28;20210;-86
2023/11/18 09:17:49;;;;;;;1.00;1.00;;;;;;;;;;5111259;28;20734;-87
2023/11/18 09:20:17;;;;;;;2.23;1.70;;;;;;;;;;5107105;28;20202;-85
2023/11/18 09:22:46;;;;;;;0.90;0.90;;;;;;;;;;5113692;28;20245;-86
2023/11/18 09:25:13;;;;;;;1.03;1.03;;;;;;;;;;5106395;28;20210;-84
2023/11/18 09:27:40;;;;;;;1.43;1.30;;;;;;;;;;5092396;28;20247;-86
2023/11/18 09:30:13;;;;;;;3.17;1.07;;;;;;;;;;5114149;28;20199;-86
2023/11/18 09:32:41;;;;;;;1.00;0.90;;;;;;;;;;5113212;28;20211;-86
2023/11/18 09:35:12;;;;;;;0.53;0.53;;;;;;;;;;5100485;28;20208;-86
2023/11/18 09:37:40;;;;;;;2.00;0.90;;;;;;;;;;5102493;28;20735;-86
2023/11/18 09:40:12;;;;;;;1.43;1.20;;;;;;;;;;5111561;28;20215;-86
2023/11/18 09:42:39;;;;;;;1.07;1.07;;;;;;;;;;5105315;28;20228;-86
2023/11/18 09:45:13;;;;;;;0.60;0.60;;;;;;;;;;5113371;28;20754;-86
2023/11/18 09:47:47;;;;;;;2.00;0.70;;;;;;;;;;5110936;28;20220;-80
2023/11/18 09:50:20;;;;;;;3.30;1.23;;;;;;;;;;5101467;28;20202;-81
2023/11/18 09:52:51;;;;;;;3.43;1.10;;;;;;;;;;5094213;28;20200;-81
2023/11/18 09:55:27;;;;;;;0.80;0.80;;;;;;;;;;5111815;28;20256;-80
2023/11/18 09:58:03;;;;;;;1.37;1.00;;;;;;;;;;5111909;28;20195;-81
2023/11/18 10:00:33;;;;;;;0.90;0.90;;;;;;;;;;5104353;28;20288;-80
2023/11/18 10:03:00;;;;;;;2.57;1.70;;;;;;;;;;5104968;28;20210;-81
2023/11/18 10:05:30;;;;;;;3.23;1.87;;;;;;;;;;5108568;28;20224;-80
2023/11/18 10:07:58;;;;;;;6.43;3.70;;;;;;;;;;5091360;28;20621;-81
2023/11/18 10:10:35;;;;;;;4.50;4.10;;;;;;;;;;5092492;28;20283;-81
2023/11/18 10:13:08;;;;;;;5.60;3.67;;;;;;;;;;5097701;28;20200;-81
2023/11/18 10:15:35;;;;;;;2.10;1.90;;;;;;;;;;5091898;28;20196;-80
2023/11/18 10:18:07;;;;;;;2.20;1.57;;;;;;;;;;5091584;28;20208;-80
2023/11/18 10:20:45;;;;;;;1.80;1.37;;;;;;;;;;5090961;28;20686;-81
2023/11/18 10:23:19;;;;;;;2.13;1.67;;;;;;;;;;5108426;28;20199;-80
2023/11/18 10:25:49;;;;;;;1.70;1.13;;;;;;;;;;5111957;28;20264;-82
2023/11/18 10:28:23;;;;;;;1.20;1.10;;;;;;;;;;5111267;28;20280;-80
2023/11/18 10:30:50;;;;;;;0.93;0.87;;;;;;;;;;5098633;28;20275;-81
2023/11/18 10:33:18;;;;;;;1.03;0.93;;;;;;;;;;5105041;28;20706;-80
2023/11/18 10:35:55;;;;;;;0.97;0.93;;;;;;;;;;5091319;28;20200;-80
2023/11/18 10:38:25;;;;;;;0.80;0.80;;;;;;;;;;5099129;28;20286;-79
2023/11/18 10:40:55;;;;;;;1.00;1.00;;;;;;;;;;5097510;28;20656;-79
2023/11/18 10:43:24;;;;;;;1.20;1.10;;;;;;;;;;5101524;28;20216;-79
2023/11/18 10:45:52;;;;;;;0.80;0.80;;;;;;;;;;5091063;28;20246;-84
2023/11/18 10:48:20;;;;;;;0.87;0.87;;;;;;;;;;5091383;28;20224;-85
2023/11/18 10:50:49;;;;;;;3.93;2.20;;;;;;;;;;5108085;28;20222;-87
2023/11/18 10:53:17;;;;;;;1.47;1.37;;;;;;;;;;5108100;28;20208;-84
2023/11/18 10:55:44;;;;;;;1.30;1.20;;;;;;;;;;5113640;28;20282;-83
2023/11/18 10:58:14;;;;;;;2.97;1.40;;;;;;;;;;5119679;28;20282;-87
2023/11/18 11:00:48;;;;;;;1.53;1.43;;;;;;;;;;5117854;28;20764;-86
2023/11/18 11:03:15;;;;;;;1.20;1.10;;;;;;;;;;5111987;28;20670;-85
2023/11/18 11:05:43;;;;;;;2.83;1.43;;;;;;;;;;5111750;28;20203;-85
2023/11/18 11:08:14;;;;;;;1.60;1.50;;;;;;;;;;5111550;28;20571;-84
2023/11/18 11:10:42;;;;;;;1.17;1.07;;;;;;;;;;5100678;28;20635;-86
2023/11/18 11:13:10;;;;;;;1.30;1.20;;;;;;;;;;5108837;28;20210;-86
2023/11/18 11:15:44;;;;;;;0.87;0.87;;;;;;;;;;5099880;28;20204;-85
2023/11/18 11:18:15;;;;;;;1.10;1.00;;;;;;;;;;5105138;28;20261;-85
2023/11/18 11:20:49;;;;;;;1.33;1.23;;;;;;;;;;5091236;28;20208;-85
2023/11/18 11:23:21;;;;;;;4.63;2.07;;;;;;;;;;5098779;28;20268;-85
2023/11/18 11:25:57;;;;;;;1.33;1.20;;;;;;;;;;5111089;28;20199;-84
2023/11/18 11:28:25;;;;;;;3.37;1.67;;;;;;;;;;5110981;28;20223;-84
2023/11/18 11:30:59;;;;;;;1.33;1.23;;;;;;;;;;5098952;28;20199;-84
2023/11/18 11:33:32;;;;;;;0.80;0.80;;;;;;;;;;5096893;28;20211;-85
2023/11/18 11:36:02;;;;;;;0.63;0.63;;;;;;;;;;5110824;28;20208;-83
2023/11/18 11:38:28;;;;;;;1.20;1.10;;;;;;;;;;5103613;28;20201;-83
2023/11/18 11:40:57;;;;;;;0.80;0.80;;;;;;;;;;5105904;28;20214;-82
2023/11/18 11:43:27;;;;;;;1.00;1.00;;;;;;;;;;5102440;28;20319;-85
2023/11/18 11:45:56;;;;;;;0.67;0.67;;;;;;;;;;5091134;28;20214;-84
2023/11/18 11:48:27;;;;;;;0.73;0.73;;;;;;;;;;5100068;28;20778;-82
2023/11/18 11:51:13;;;;;;;0.70;0.70;;;;;;;;;;5110905;28;20200;-85
2023/11/18 11:53:45;;;;;;;1.60;0.70;;;;;;;;;;5111067;28;20687;-86
2023/11/18 11:56:14;;;;;;;2.30;1.97;;;;;;;;;;5111347;28;20624;-85
2023/11/18 11:58:43;;;;;;;17.17;10.47;;;;;;;;;;5102046;28;20212;-85
2023/11/18 12:01:24;;;;;;;1.10;1.10;;;;;;;;;;5099596;28;20235;-86
2023/11/18 12:03:57;;;;;;;0.90;0.90;;;;;;;;;;5091947;28;20211;-85
2023/11/18 12:06:26;;;;;;;1.20;1.10;;;;;;;;;;5104208;28;20200;-86
2023/11/18 12:08:53;;;;;;;0.93;0.93;;;;;;;;;;5101595;28;20231;-86
2023/11/18 12:11:22;;;;;;;5.07;1.80;;;;;;;;;;5097201;28;20227;-85
2023/11/18 12:14:32;;;;;;;2.53;2.23;;;;;;;;;;5104449;28;20231;-84
2023/11/18 12:17:13;;;;;;;1.17;1.17;;;;;;;;;;5097552;28;20256;-85
2023/11/18 12:19:47;;;;;;;1.83;1.17;;;;;;;;;;5098181;28;20292;-84
2023/11/18 12:22:19;;;;;;;1.47;1.37;;;;;;;;;;5098276;28;20202;-84
2023/11/18 12:24:53;;;;;;;0.80;0.80;;;;;;;;;;5111283;28;20258;-84
2023/11/18 12:27:51;;;;;;;1.23;0.80;;;;;;;;;;5102687;28;20200;-85
2023/11/18 12:30:51;;;;;;;0.93;0.93;;;;;;;;;;5113466;28;20219;-85
2023/11/18 12:33:23;;;;;;;1.30;1.27;;;;;;;;;;5101510;28;20203;-86
2023/11/18 12:36:24;;;;;;;0.83;0.83;;;;;;;;;;5114697;28;20235;-84
2023/11/18 12:39:24;;;;;;;1.07;0.90;;;;;;;;;;5114675;28;20619;-86
2023/11/18 12:42:11;;;;;;;0.83;0.83;;;;;;;;;;5098618;28;20405;-85
2023/11/18 12:44:41;;;;;;;2.13;0.60;;;;;;;;;;5113910;28;20208;-85
2023/11/18 12:47:18;;;;;;;3.03;1.07;;;;;;;;;;5114357;28;20200;-85
2023/11/18 12:49:49;;;;;;;1.70;1.60;;;;;;;;;;5107897;28;20733;-85
2023/11/18 12:52:18;;;;;;;0.70;0.70;;;;;;;;;;5107713;28;20207;-85
2023/11/18 12:54:50;;;;;;;1.30;1.20;;;;;;;;;;5101364;28;20200;-85
2023/11/18 12:57:17;;;;;;;2.47;1.93;;;;;;;;;;5114188;28;20207;-85
2023/11/18 12:59:45;;;;;;;1.00;0.90;;;;;;;;;;5113913;28;20200;-84
2023/11/18 13:02:19;;;;;;;2.10;1.90;;;;;;;;;;5106853;28;20295;-85
2023/11/18 13:21:22;;;;;;;2.80;1.27;;;;;;;;;;5129398;27;20366;-83
2023/11/18 13:23:52;;;;;;;2.77;1.30;;;;;;;;;;5110773;28;20199;-82
2023/11/18 13:26:20;;;;;;;8.87;2.07;;;;;;;;;;5121019;28;20236;-84
2023/11/18 13:28:47;;;;;;;7.40;4.73;;;;;;;;;;5127679;28;20218;-84
2023/11/18 13:31:16;;;;;;;3.93;2.53;;;;;;;;;;5117107;28;20263;-83
2023/11/18 13:33:43;;;;;;;1.90;1.63;;;;;;;;;;5101109;28;20723;-82
2023/11/18 13:36:11;;;;;;;1.37;1.30;;;;;;;;;;5119577;28;20192;-83
2023/11/18 13:38:43;;;;;;;1.10;1.00;;;;;;;;;;5108493;28;20292;-82
2023/11/18 13:41:13;;;;;;;1.00;1.00;;;;;;;;;;5098121;28;20697;-82
2023/11/18 13:43:43;;;;;;;1.87;1.70;;;;;;;;;;5109216;28;20691;-85
2023/11/18 13:46:14;;;;;;;1.50;1.40;;;;;;;;;;5115473;28;20199;-84
2023/11/18 13:48:41;;;;;;;0.90;0.90;;;;;;;;;;5128590;28;20239;-83
2023/11/18 13:51:12;;;;;;;0.80;0.80;;;;;;;;;;5128026;28;20210;-83
2023/11/18 13:53:40;;;;;;;0.83;0.83;;;;;;;;;;5115523;28;20231;-81
2023/11/18 13:56:09;;;;;;;6.13;1.30;;;;;;;;;;5122445;28;20204;-83
2023/11/18 13:58:38;;;;;;;1.67;1.10;;;;;;;;;;5094811;28;20246;-83
2023/11/18 14:01:07;;;;;;;1.37;1.27;;;;;;;;;;5094772;28;20235;-83
2023/11/18 14:03:34;;;;;;;1.53;1.43;;;;;;;;;;5121873;28;20203;-83
2023/11/18 14:06:02;;;;;;;5.30;2.00;;;;;;;;;;5108154;28;20691;-83
2023/11/18 14:08:29;;;;;;;3.47;2.37;;;;;;;;;;5107952;28;20295;-82
2023/11/18 14:10:56;;;;;;;1.23;1.00;;;;;;;;;;5115878;28;20227;-85
2023/11/18 14:13:24;;;;;;;1.07;0.97;;;;;;;;;;5126383;28;20213;-84
2023/11/18 14:15:55;;;;;;;1.30;1.20;;;;;;;;;;5107171;28;20290;-84
2023/11/18 14:18:22;;;;;;;2.43;2.10;;;;;;;;;;5122885;28;20662;-84
2023/11/18 14:20:49;;;;;;;2.60;2.40;;;;;;;;;;5114040;28;20231;-83
2023/11/18 14:23:18;;;;;;;1.53;0.80;;;;;;;;;;5105541;28;20199;-84
2023/11/18 14:25:45;;;;;;;8.30;5.33;;;;;;;;;;5093547;28;20286;-84
2023/11/18 14:28:12;;;;;;;4.00;2.43;;;;;;;;;;5111384;28;20207;-83
2023/11/18 14:30:41;;;;;;;5.77;2.57;;;;;;;;;;5084012;28;20220;-83
2023/11/18 14:33:08;;;;;;;2.77;2.07;;;;;;;;;;5090889;28;20630;-84
2023/11/18 14:35:35;;;;;;;2.40;1.63;;;;;;;;;;5093906;28;20204;-82
2023/11/18 14:38:02;;;;;;;1.80;1.47;;;;;;;;;;5097719;28;20200;-83
2023/11/18 14:40:29;;;;;;;2.87;2.60;;;;;;;;;;5103694;28;20216;-83
2023/11/18 14:42:56;;;;;;;1.83;1.60;;;;;;;;;;5090385;28;20197;-82
2023/11/18 14:45:23;;;;;;;2.30;2.10;;;;;;;;;;5095254;28;21088;-82
2023/11/18 14:47:52;;;;;;;1.57;1.43;;;;;;;;;;5095558;28;20204;-81
2023/11/18 14:50:23;;;;;;;1.40;1.30;;;;;;;;;;5092769;28;20314;-81
2023/11/18 14:52:56;;;;;;;4.43;1.20;;;;;;;;;;5093258;28;20649;-82
2023/11/18 14:55:24;;;;;;;1.67;1.40;;;;;;;;;;5105931;28;20294;-83
2023/11/18 14:57:51;;;;;;;1.57;1.47;;;;;;;;;;5106649;28;20207;-81
2023/11/18 15:17:39;;;;;;;1.83;1.67;;;;;;;;;;5065929;28;21136;-86
2023/11/18 16:10:07;;;;;;;1.73;1.63;;;;;;;;;;5113801;27;1337674;-75
2023/11/18 16:12:34;;;;;;;2.43;1.53;;;;;;;;;;5145623;27;20198;-74
2023/11/18 16:15:01;;;;;;;1.60;1.50;;;;;;;;;;5128957;28;20206;-74
2023/11/18 16:17:28;;;;;;;1.60;1.50;;;;;;;;;;5145731;27;20198;-74
2023/11/18 16:19:55;;;;;;;3.10;2.20;;;;;;;;;;5128575;28;20228;-74
2023/11/18 16:22:22;;;;;;;1.80;1.70;;;;;;;;;;5147689;27;20194;-74